Flight Track Log - Related Links

Times and Time Zones

All times are in EST time to prevent confusion due to time zone crossing. See the N323EG flight status page for this flight to view local times or setup timezone preferences in your user account.


Time Position Orientation Groundspeed Altitude Reporting Facility
EST Latitude Longitude Course Direction KTS MPH feet Rate Location/Type
Thu 05:04:49 PM 33.6167 -111.9333 270° West 177 204 2,500  Level Phoenix TRACON
Thu 05:05:19 PM 33.6167 -111.9667 270° West 190 219 4,400 2,634 Climbing Phoenix TRACON
Thu 05:06:11 PM 33.6622 -111.9569 10° North 226 260 6,100 2,243 Climbing Albuquerque Center
Thu 05:07:14 PM 33.7203 -111.8947 42° Northeast 277 319 8,700 2,832 Climbing Albuquerque Center
Thu 05:08:16 PM 33.7803 -111.8283 43° Northeast 293 337 12,000 3,097 Climbing Albuquerque Center
Thu 05:09:18 PM 33.8469 -111.7803 31° Northeast 282 325 15,100 2,661 Climbing Albuquerque Center
Thu 05:10:20 PM 33.9433 -111.7556 12° North 300 345 17,500 1,984 Climbing Albuquerque Center
Thu 05:11:22 PM 34.0417 -111.7308 12° North 324 373 19,200 1,500 Climbing Albuquerque Center
Thu 05:12:24 PM 34.1089 -111.6717 36° Northeast 358 412 20,600 1,597 Climbing Albuquerque Center
Thu 05:13:26 PM 34.2053 -111.5769 39° Northeast 372 428 22,500 1,694 Climbing Albuquerque Center
Thu 05:14:28 PM 34.2875 -111.4961 39° Northeast 379 436 24,100 1,548 Climbing Albuquerque Center
Thu 05:15:30 PM 34.3703 -111.4131 40° Northeast 384 442 25,700 1,500 Climbing Albuquerque Center
Thu 05:16:32 PM 34.4536 -111.3300 39° Northeast 387 445 27,200 1,355 Climbing Albuquerque Center
Thu 05:17:34 PM 34.5386 -111.2453 39° Northeast 392 451 28,500 1,306 Climbing Albuquerque Center
Thu 05:18:36 PM 34.6236 -111.1583 40° Northeast 398 458 29,900 1,548 Climbing Albuquerque Center
Thu 05:19:38 PM 34.7283 -111.0544 39° Northeast 403 464 31,700 1,597 Climbing Albuquerque Center
Thu 05:20:40 PM 34.8142 -110.9667 40° Northeast 404 465 33,200 1,440 Climbing Albuquerque Center
Thu 05:21:43 PM 34.8994 -110.8786 40° Northeast 404 465 34,700 864 Climbing Albuquerque Center
Thu 05:22:45 PM 34.9858 -110.7886 40° Northeast 407 468 35,000 532 Climbing Albuquerque Center
Thu 05:23:47 PM 35.0864 -110.6858 40° Northeast 423 487 35,800 919 Climbing Albuquerque Center
Thu 05:24:49 PM 35.1728 -110.5989 39° Northeast 421 484 36,900 581 Climbing Albuquerque Center
Thu 05:25:51 PM 35.2722 -110.4936 41° Northeast 422 486 37,000 387 Climbing Albuquerque Center
Thu 05:26:53 PM 35.3606 -110.4058 39° Northeast 425 489 37,700 1,065 Climbing Albuquerque Center
Thu 05:27:55 PM 35.4572 -110.3042 41° Northeast 414 476 39,200 1,452 Climbing Albuquerque Center
Thu 05:28:57 PM 35.5381 -110.2244 39° Northeast 397 457 40,700 871 Climbing Albuquerque Center
Thu 05:29:59 PM 35.6369 -110.1514 31° Northeast 374 430 41,000 242 Climbing Albuquerque Center
Thu 05:31:01 PM 35.7278 -110.0886 29° Northeast 383 441 41,200 677 Climbing Albuquerque Center
Thu 05:32:03 PM 35.8328 -110.0158 29° Northeast 386 444 42,400 871 Climbing Albuquerque Center
Thu 05:33:05 PM 35.9208 -109.9550 29° Northeast 381 438 43,000 290 Climbing Albuquerque Center
Thu 05:34:07 PM 36.0256 -109.8794 30° Northeast 385 443 43,000  Level Albuquerque Center
Thu 05:35:09 PM 36.1203 -109.8119 30° Northeast 397 457 43,000  Level Albuquerque Center
Thu 05:36:11 PM 36.2175 -109.7456 29° Northeast 408 470 43,000  Level Albuquerque Center
Thu 05:37:17 PM 36.3286 -109.6669 30° Northeast 410 472 43,000  Level Denver Center
Thu 05:38:19 PM 36.4364 -109.5903 30° Northeast 400 460 43,000  Level Denver Center
Thu 05:39:21 PM 36.5303 -109.5228 30° Northeast 403 464 43,000 -339 Level Denver Center
Thu 05:40:23 PM 36.6400 -109.4439 30° Northeast 405 466 42,300 -726 Descending Denver Center
Thu 05:41:25 PM 36.7292 -109.3806 30° Northeast 389 448 41,500 -629 Descending Denver Center
Thu 05:42:27 PM 36.8153 -109.3181 30° Northeast 374 430 41,000 -242 Descending Denver Center
Thu 05:43:29 PM 36.9144 -109.2458 30° Northeast 370 426 41,000  Level Denver Center
Thu 05:44:31 PM 37.0014 -109.1844 29° Northeast 373 429 41,000  Level Denver Center
Thu 05:45:33 PM 37.1033 -109.1092 30° Northeast 379 436 41,000  Level Denver Center
Thu 05:46:35 PM 37.1911 -109.0447 30° Northeast 381 438 41,000  Level Denver Center
Thu 05:47:37 PM 37.2931 -108.9703 30° Northeast 379 436 41,000  Level Denver Center
Thu 05:48:39 PM 37.3803 -108.9056 31° Northeast 380 437 41,000  Level Denver Center
Thu 05:49:41 PM 37.4822 -108.8319 30° Northeast 380 437 41,000 -144 Level Denver Center
Thu 05:50:44 PM 37.5686 -108.7661 31° Northeast 379 436 40,700 -576 Descending Denver Center
Thu 05:51:46 PM 37.6689 -108.6919 30° Northeast 374 430 39,800 -823 Descending Denver Center
Thu 05:52:48 PM 37.7519 -108.6303 30° Northeast 363 418 39,000 -823 Descending Denver Center
Thu 05:53:50 PM 37.8511 -108.5581 30° Northeast 365 420 38,100 -774 Descending Denver Center
Thu 05:54:52 PM 37.9378 -108.4950 30° Northeast 373 429 37,400 -532 Descending Denver Center
Thu 05:55:54 PM 38.0253 -108.4269 31° Northeast 381 438 37,000 -194 Descending Denver Center
Thu 05:56:56 PM 38.1197 -108.3531 32° Northeast 381 438 37,000  Level Denver Center
Thu 05:57:58 PM 38.2214 -108.2778 30° Northeast 379 436 37,000  Level Denver Center
Thu 05:59:00 PM 38.3081 -108.2114 31° Northeast 380 437 37,000  Level Denver Center
Thu 06:00:02 PM 38.4106 -108.1353 30° Northeast 382 440 37,000  Level Denver Center
Thu 06:01:04 PM 38.4961 -108.0706 31° Northeast 377 434 37,000  Level Denver Center
Thu 06:02:06 PM 38.5972 -107.9933 31° Northeast 378 435 37,000  Level Denver Center
Thu 06:03:08 PM 38.6828 -107.9278 31° Northeast 377 434 37,000  Level Denver Center
Thu 06:04:10 PM 38.7831 -107.8494 31° Northeast 378 435 37,000 -192 Level Denver Center
Thu 06:05:13 PM 38.8692 -107.7894 28° Northeast 372 428 36,600 -1,200 Descending Denver Center
Thu 06:06:15 PM 38.9733 -107.7747 North 342 394 34,500 -1,694 Descending Denver Center
Thu 06:07:17 PM 39.0628 -107.7661 North 337 388 33,100 -726 Descending Denver Center
Thu 06:08:19 PM 39.1636 -107.7561 North 328 377 33,000 -532 Descending Denver Center
Thu 06:09:21 PM 39.2533 -107.7469 North 336 387 32,000 -968 Descending Denver Center
Thu 06:10:23 PM 39.3275 -107.7394 North 336 387 31,000 -484 Descending Denver Center
Thu 06:11:25 PM 39.4406 -107.7286 North 322 371 31,000 -871 Level Denver Center
Thu 06:12:27 PM 39.5344 -107.6992 14° North 326 375 29,200 -2,226 Descending Denver Center
Thu 06:13:29 PM 39.5931 -107.6106 49° Northeast 342 394 26,400 -3,242 Descending Denver Center
Thu 06:14:31 PM 39.6581 -107.5003 53° Northeast 345 397 22,500 -3,387 Descending Denver Center
Thu 06:15:33 PM 39.7150 -107.4025 53° Northeast 352 405 19,400 -2,323 Descending Denver Center
Thu 06:16:35 PM 39.7794 -107.2953 52° Northeast 339 390 17,700 -1,645 Descending Denver Center

Login

Don't have an account? Register now (free) for customized features, flight alerts, and more!